首页
METAR-TAF:

METAR-TAF

机场 :

Ponta Delgada, 亚速尔群岛, 葡萄牙

纬度: 37-44N, 经度: 025-42W, 海拔: 71米

当前天气观测

该预报发布于23分钟前的23:00 UTC
风速5节,风向北转西北
温度 18°C
湿度 73%
气压 1022 hPa
能见度10公里或以上
少量云层高于2000英尺

METAR: LPPD 132300Z 34005KT 9999 FEW020 18/13 Q1022

时间: 23:23 (23:23 UTC)

预报

该预报发布于6小时和23分钟前的17:00 UTC
预报有效从13日的 18点(UTC)到 14日的 18点(UTC)
风速15节,风向西北
能见度10公里或以上
散云层高于4000英尺
短暂存在
从 13日的 18点(UTC)到 14日的 18点(UTC)
散云层高于1800英尺
多云层高于3000英尺
几率 30% :
短暂存在
从 13日的 18点(UTC)到 14日的 03点(UTC)
风速17节,风向北转西北,有时为27节阵风
能見度: 8000
多云层高于1500英尺
少量云层高于1800英尺, 塔状积云.
成为
从 14日的 03点(UTC)到 14日的 06点(UTC)
风速7节,风向
成为
从 14日的 12点(UTC)到 14日的 15点(UTC)
风速7节,风向西转西北

TAF: LPPD 131700Z 1318/1418 32015KT 9999 SCT040 TEMPO 1318/1418 SCT018 BKN030 PROB30 TEMPO 1318/1403 33017G27KT 8000 BKN015 FEW018TCU BECMG 1403/1406 35007KT BECMG 1412/1415 29007KT

超过4000个机场的气象观测和天气预报(METAR&TAF报告)。

可查询的气象台以黄色和红色小点在地图上表示。

将鼠标移到小点上方,可查看气象台名称。

然后点击查看天气观测和预报。

如需切换地图:点击带黑十字的绿色按钮放大地图;点击带横线的绿色按钮缩小地图;或者点击绿色箭头查看邻近地区的地图。


METAR-TAF: